Time;durP1;ratioP1;P1;durP2;ratioP2;P2;SDS_P1;SDS_P2;PMS_P1;PMS_P2;Temp;Humidity;BMP_temperature;BMP_pressure;BME280_temperature;BME280_humidity;BME280_pressure;Samples;Min_cycle;Max_cycle;Signal;HPM_P1;HPM_P2
2021/07/01 00:02:44;;;;;;;13.63;9.38;;;20.00;98.90;;;;;;5092873;28;20089;-72
2021/07/01 00:05:28;;;;;;;11.95;9.30;;;19.90;98.90;;;;;;5088489;28;20517;-74
2021/07/01 00:08:12;;;;;;;12.47;9.10;;;20.00;98.90;;;;;;5083322;28;20098;-73
2021/07/01 00:10:56;;;;;;;15.00;9.55;;;20.00;99.00;;;;;;5071238;28;20054;-73
2021/07/01 00:13:28;;;;;;;14.32;9.98;;;19.90;99.00;;;;;;5071658;28;20039;-74
2021/07/01 00:16:12;;;;;;;16.88;9.52;;;20.00;99.10;;;;;;5075810;28;20059;-73
2021/07/01 00:18:58;;;;;;;12.75;9.55;;;20.00;99.20;;;;;;5071222;28;20403;-73
2021/07/01 00:21:44;;;;;;;15.85;10.13;;;19.90;99.00;;;;;;5088567;28;20550;-74
2021/07/01 00:24:30;;;;;;;13.63;8.05;;;19.90;99.00;;;;;;5088357;28;20524;-74
2021/07/01 00:27:15;;;;;;;13.13;8.40;;;20.00;99.00;;;;;;5069841;28;20032;-73
2021/07/01 00:30:04;;;;;;;12.02;8.20;;;20.00;99.00;;;;;;5071767;28;20112;-73
2021/07/01 00:32:50;;;;;;;11.73;8.35;;;20.00;98.90;;;;;;5090126;28;20501;-74
2021/07/01 00:35:36;;;;;;;11.13;7.47;;;20.00;98.80;;;;;;5088001;28;20036;-73
2021/07/01 00:38:22;;;;;;;11.25;7.32;;;19.90;98.80;;;;;;5090771;28;20060;-74
2021/07/01 00:41:08;;;;;;;10.68;7.57;;;19.90;98.80;;;;;;5074192;28;20036;-72
2021/07/01 00:43:54;;;;;;;14.20;7.25;;;20.00;98.90;;;;;;5084002;28;20031;-72
2021/07/01 00:46:39;;;;;;;11.73;7.50;;;19.90;98.80;;;;;;5088806;28;20046;-72
2021/07/01 00:49:25;;;;;;;14.82;8.25;;;19.90;98.90;;;;;;5089154;28;20020;-71
2021/07/01 00:52:11;;;;;;;11.20;8.15;;;19.90;98.90;;;;;;5070024;28;20020;-71
2021/07/01 00:54:57;;;;;;;12.45;7.70;;;19.90;98.90;;;;;;5062597;28;20114;-71
2021/07/01 00:57:43;;;;;;;10.88;7.15;;;19.90;98.90;;;;;;5069177;28;20013;-71
2021/07/01 01:00:40;;;;;;;11.88;7.63;;;19.90;98.90;;;;;;5075460;28;20064;-72
2021/07/01 01:03:26;;;;;;;10.02;7.25;;;19.90;99.00;;;;;;5084542;28;20033;-72
2021/07/01 01:06:13;;;;;;;10.82;7.57;;;19.90;99.00;;;;;;5070173;28;20078;-71
2021/07/01 01:09:00;;;;;;;10.27;6.90;;;19.90;99.00;;;;;;5069447;28;20055;-73
2021/07/01 01:11:46;;;;;;;10.15;7.10;;;19.80;98.90;;;;;;5069674;28;20021;-73
2021/07/01 01:14:32;;;;;;;10.90;7.38;;;19.90;99.00;;;;;;5067543;28;20404;-73
2021/07/01 01:17:18;;;;;;;11.05;7.25;;;19.90;99.00;;;;;;5089743;28;20467;-72
2021/07/01 01:20:05;;;;;;;10.00;7.35;;;19.90;99.00;;;;;;5083100;28;20090;-74
2021/07/01 01:22:50;;;;;;;9.88;6.75;;;19.80;99.00;;;;;;5069689;28;20392;-74
2021/07/01 01:25:36;;;;;;;9.35;6.95;;;19.90;99.10;;;;;;5076622;28;20028;-76
2021/07/01 01:28:22;;;;;;;12.38;7.97;;;19.80;99.00;;;;;;5089596;28;20024;-76
2021/07/01 01:31:08;;;;;;;13.02;7.95;;;19.80;99.00;;;;;;5083544;28;20035;-75
2021/07/01 01:33:54;;;;;;;16.70;7.60;;;19.90;99.00;;;;;;5083284;28;20112;-75
2021/07/01 01:36:40;;;;;;;11.23;8.38;;;19.80;99.00;;;;;;5069942;28;20373;-76
2021/07/01 01:39:25;;;;;;;11.75;8.13;;;19.80;99.00;;;;;;5060236;28;20392;-76
2021/07/01 01:42:11;;;;;;;12.95;8.48;;;19.80;98.90;;;;;;5075557;28;20094;-76
2021/07/01 01:44:57;;;;;;;15.07;8.20;;;19.80;98.90;;;;;;5048218;28;20054;-76
2021/07/01 01:47:47;;;;;;;12.30;7.95;;;19.80;98.90;;;;;;5069714;28;20028;-75
2021/07/01 01:50:34;;;;;;;14.23;8.15;;;19.80;98.90;;;;;;5068835;28;20039;-75
2021/07/01 01:53:19;;;;;;;11.70;7.53;;;19.70;98.80;;;;;;5088449;28;20063;-75
2021/07/01 01:56:05;;;;;;;14.02;7.60;;;19.70;98.80;;;;;;5071645;28;20078;-75
2021/07/01 01:58:51;;;;;;;10.80;6.82;;;19.70;98.80;;;;;;5070266;28;20031;-76
2021/07/01 02:01:37;;;;;;;10.25;6.93;;;19.70;98.80;;;;;;5072579;28;20036;-76
2021/07/01 02:04:23;;;;;;;11.18;6.40;;;19.70;98.80;;;;;;5062054;28;20037;-75
2021/07/01 02:07:08;;;;;;;10.27;7.28;;;19.70;98.80;;;;;;5070239;28;20044;-76
2021/07/01 02:09:54;;;;;;;8.85;5.82;;;19.60;98.80;;;;;;5071644;28;20025;-75
2021/07/01 02:12:40;;;;;;;14.20;7.28;;;19.60;98.80;;;;;;5066012;28;20095;-75
2021/07/01 02:15:25;;;;;;;8.77;6.50;;;19.60;98.80;;;;;;5072874;28;20062;-75
2021/07/01 02:18:10;;;;;;;8.85;6.70;;;19.60;98.80;;;;;;5073731;28;20047;-75
2021/07/01 02:20:54;;;;;;;11.13;6.82;;;19.60;98.80;;;;;;5074166;28;20074;-75
2021/07/01 02:23:38;;;;;;;12.87;6.33;;;19.60;98.80;;;;;;5081968;28;20028;-75
2021/07/01 02:26:22;;;;;;;9.88;6.93;;;19.60;98.80;;;;;;5094875;28;20260;-76
2021/07/01 02:29:06;;;;;;;9.13;6.30;;;19.60;98.70;;;;;;5086543;28;20063;-76
2021/07/01 02:31:50;;;;;;;8.48;5.72;;;19.60;98.70;;;;;;5094502;28;20074;-75
2021/07/01 02:34:40;;;;;;;8.15;5.57;;;19.60;98.70;;;;;;5082452;28;20032;-74
2021/07/01 02:37:25;;;;;;;7.30;5.05;;;19.60;98.70;;;;;;5074368;28;20089;-75
2021/07/01 02:40:15;;;;;;;6.78;4.68;;;19.60;98.70;;;;;;5086833;28;20085;-74
2021/07/01 02:42:59;;;;;;;8.80;4.57;;;19.60;98.70;;;;;;5074597;28;20154;-74
2021/07/01 02:45:43;;;;;;;9.00;5.40;;;19.50;98.70;;;;;;5092414;28;20059;-74
2021/07/01 02:48:27;;;;;;;7.97;5.00;;;19.60;98.70;;;;;;5091299;28;20074;-75
2021/07/01 02:51:11;;;;;;;7.63;4.93;;;19.60;98.70;;;;;;5094347;28;20043;-75
2021/07/01 02:53:55;;;;;;;7.17;4.43;;;19.60;98.70;;;;;;5069661;28;20032;-75
2021/07/01 02:56:42;;;;;;;7.85;4.97;;;19.60;98.70;;;;;;5058578;28;20388;-74
2021/07/01 02:59:26;;;;;;;7.70;4.50;;;19.60;98.70;;;;;;5072330;28;20098;-75
2021/07/01 03:02:12;;;;;;;;;;;19.50;98.70;;;;;;5078035;28;20047;-75
2021/07/01 03:04:56;;;;;;;8.45;4.65;;;19.60;98.60;;;;;;5078756;28;19943;-75
2021/07/01 03:07:40;;;;;;;6.97;4.53;;;19.50;98.60;;;;;;5073391;28;20090;-74
2021/07/01 03:10:24;;;;;;;7.53;5.00;;;19.50;98.70;;;;;;5086284;28;20846;-74
2021/07/01 03:13:08;;;;;;;6.97;4.00;;;19.50;98.70;;;;;;5072749;28;20170;-75
2021/07/01 03:15:52;;;;;;;5.40;3.93;;;19.50;98.70;;;;;;5093703;28;20073;-73
2021/07/01 03:18:36;;;;;;;5.10;3.63;;;19.50;98.70;;;;;;5089915;28;20039;-73
2021/07/01 03:21:21;;;;;;;5.03;3.50;;;19.50;98.70;;;;;;5073082;28;20310;-74
2021/07/01 03:24:05;;;;;;;4.75;3.10;;;19.50;98.70;;;;;;5081122;28;20040;-75
2021/07/01 03:26:49;;;;;;;4.72;2.90;;;19.50;98.60;;;;;;5091107;28;20039;-73
2021/07/01 03:29:34;;;;;;;3.10;2.30;;;19.40;98.60;;;;;;5076290;28;20468;-73
2021/07/01 03:32:18;;;;;;;3.78;2.72;;;19.40;98.60;;;;;;5073175;28;20062;-74
2021/07/01 03:35:02;;;;;;;3.70;2.53;;;19.40;98.70;;;;;;5071949;28;20102;-73
2021/07/01 03:37:46;;;;;;;6.22;2.88;;;19.40;98.80;;;;;;5073080;28;20078;-72
2021/07/01 03:40:30;;;;;;;6.57;2.43;;;19.30;98.90;;;;;;5088489;28;20137;-74
2021/07/01 03:43:14;;;;;;;3.55;2.30;;;19.30;98.90;;;;;;5091621;28;20315;-73
2021/07/01 03:45:58;;;;;;;3.10;2.40;;;19.30;98.90;;;;;;5093110;28;20092;-74
2021/07/01 03:48:42;;;;;;;5.47;2.35;;;19.30;99.00;;;;;;5088008;28;20480;-74
2021/07/01 03:51:26;;;;;;;4.10;2.23;;;19.30;99.10;;;;;;5052659;28;20059;-73
2021/07/01 03:54:10;;;;;;;4.78;1.80;;;19.20;99.10;;;;;;5081917;28;20324;-73
2021/07/01 03:56:57;;;;;;;2.58;1.90;;;19.20;99.10;;;;;;5072880;28;20074;-73
2021/07/01 03:59:41;;;;;;;4.05;1.83;;;19.10;99.10;;;;;;5071461;28;20387;-74
2021/07/01 04:02:25;;;;;;;2.40;1.60;;;19.10;99.10;;;;;;5072361;28;20051;-73
2021/07/01 04:05:09;;;;;;;2.43;1.70;;;19.00;99.00;;;;;;5085173;28;20066;-73
2021/07/01 04:07:53;;;;;;;3.30;1.63;;;19.00;99.00;;;;;;5092399;28;20297;-72
2021/07/01 04:10:37;;;;;;;4.20;1.70;;;18.90;99.20;;;;;;5070708;28;20052;-72
2021/07/01 04:13:21;;;;;;;2.10;1.50;;;18.80;99.20;;;;;;5063724;28;20071;-72
2021/07/01 04:16:05;;;;;;;2.70;1.73;;;18.80;99.30;;;;;;5072224;28;20795;-72
2021/07/01 04:18:49;;;;;;;2.75;1.80;;;18.80;99.40;;;;;;5071542;28;20075;-72
2021/07/01 04:21:34;;;;;;;3.13;1.90;;;18.80;99.40;;;;;;5073237;28;20121;-73
2021/07/01 04:24:18;;;;;;;3.33;1.65;;;18.70;99.40;;;;;;5083212;28;20540;-72
2021/07/01 04:27:02;;;;;;;2.20;1.63;;;18.70;99.50;;;;;;5064531;28;20050;-73
2021/07/01 04:29:46;;;;;;;2.23;1.50;;;18.70;99.40;;;;;;5083553;28;20039;-73
2021/07/01 04:32:30;;;;;;;1.40;1.13;;;18.60;99.60;;;;;;5088691;28;20337;-71
2021/07/01 04:35:14;;;;;;;3.73;1.53;;;18.60;99.50;;;;;;5073674;28;20051;-73
2021/07/01 04:37:58;;;;;;;2.25;1.45;;;18.60;99.50;;;;;;5071892;28;20097;-73
2021/07/01 04:40:43;;;;;;;2.60;1.30;;;18.60;99.60;;;;;;5090290;28;20493;-73
2021/07/01 04:43:27;;;;;;;2.33;1.30;;;18.60;99.70;;;;;;5086892;28;20043;-73
2021/07/01 04:46:11;;;;;;;2.63;1.60;;;18.60;99.80;;;;;;5051887;28;20368;-73
2021/07/01 04:48:55;;;;;;;3.47;1.67;;;18.60;99.80;;;;;;5061552;28;20046;-73
2021/07/01 04:51:39;;;;;;;2.13;1.40;;;18.60;99.80;;;;;;5091965;28;20081;-71
2021/07/01 04:54:23;;;;;;;2.40;1.27;;;18.60;99.80;;;;;;5070250;28;20147;-71
2021/07/01 04:57:07;;;;;;;1.35;1.17;;;18.60;99.80;;;;;;5062987;28;20325;-71
2021/07/01 04:59:51;;;;;;;3.17;1.10;;;18.60;99.80;;;;;;5081642;28;20071;-72
2021/07/01 05:02:35;;;;;;;1.97;1.20;;;18.60;99.80;;;;;;5091836;28;20047;-72
2021/07/01 05:05:20;;;;;;;3.13;1.17;;;18.50;99.70;;;;;;5088665;28;20464;-71
2021/07/01 05:08:04;;;;;;;1.93;1.00;;;18.50;99.70;;;;;;5091849;28;20445;-70
2021/07/01 05:10:48;;;;;;;2.60;1.30;;;18.50;99.70;;;;;;5088854;28;20557;-71
2021/07/01 05:13:32;;;;;;;6.07;1.30;;;18.60;99.70;;;;;;5077543;28;20179;-71
2021/07/01 05:16:16;;;;;;;3.10;1.00;;;18.50;99.60;;;;;;5070886;28;20400;-71
2021/07/01 05:19:01;;;;;;;3.17;0.93;;;18.50;99.40;;;;;;5074402;28;20063;-71
2021/07/01 05:21:45;;;;;;;1.95;1.23;;;18.40;99.50;;;;;;5091242;28;20124;-71
2021/07/01 05:24:29;;;;;;;1.83;0.98;;;18.30;99.60;;;;;;5076723;28;20048;-71
2021/07/01 05:27:13;;;;;;;1.80;0.90;;;18.30;99.60;;;;;;5071490;28;20040;-72
2021/07/01 05:29:57;;;;;;;2.10;1.23;;;18.30;99.70;;;;;;5068577;28;20035;-71
2021/07/01 05:32:41;;;;;;;3.63;1.30;;;18.30;99.70;;;;;;5071532;28;20074;-71
2021/07/01 05:35:25;;;;;;;1.70;1.10;;;18.30;99.80;;;;;;5070792;28;20105;-72
2021/07/01 05:38:09;;;;;;;2.60;1.40;;;18.30;99.80;;;;;;5084899;28;20082;-72
2021/07/01 05:40:54;;;;;;;1.83;1.10;;;18.30;99.80;;;;;;5084343;28;20190;-72
2021/07/01 05:43:38;;;;;;;3.47;1.33;;;18.30;99.80;;;;;;5085298;28;20036;-72
2021/07/01 05:46:22;;;;;;;1.90;1.10;;;18.20;99.80;;;;;;5055457;28;20047;-71
2021/07/01 05:49:06;;;;;;;4.80;1.05;;;18.30;99.80;;;;;;5066310;28;20074;-71
2021/07/01 05:51:54;;;;;;;2.20;1.07;;;18.30;99.90;;;;;;5095325;28;20394;-72
2021/07/01 05:54:52;;;;;;;1.88;0.80;;;18.30;99.80;;;;;;5082347;28;20387;-72
2021/07/01 05:57:36;;;;;;;2.30;1.27;;;18.30;99.80;;;;;;5075117;28;20054;-72
2021/07/01 06:00:20;;;;;;;2.58;0.93;;;18.20;99.60;;;;;;5088898;28;20094;-73
2021/07/01 06:03:04;;;;;;;2.97;0.90;;;18.30;99.60;;;;;;5095481;28;20510;-72
2021/07/01 06:05:55;;;;;;;3.80;1.30;;;18.30;99.60;;;;;;5093686;28;20055;-73
2021/07/01 06:08:40;;;;;;;2.13;1.20;;;18.20;99.50;;;;;;5091647;28;20039;-73
2021/07/01 06:11:24;;;;;;;3.42;1.50;;;18.20;99.70;;;;;;5079601;28;20078;-73
2021/07/01 06:14:09;;;;;;;2.88;1.20;;;18.30;99.80;;;;;;5081406;28;20082;-72
2021/07/01 06:16:56;;;;;;;2.67;1.73;;;18.20;99.70;;;;;;5095075;28;20490;-72
2021/07/01 06:19:40;;;;;;;2.50;1.30;;;18.20;99.50;;;;;;5091600;28;20043;-72
2021/07/01 06:22:24;;;;;;;1.50;1.03;;;18.20;99.40;;;;;;5094981;28;20101;-70
2021/07/01 06:25:09;;;;;;;1.45;1.00;;;18.20;99.40;;;;;;5063515;28;20071;-69
2021/07/01 06:27:53;;;;;;;;;;;18.20;99.30;;;;;;5066636;28;20036;-71
2021/07/01 06:30:38;;;;;;;1.45;1.08;;;18.10;99.40;;;;;;5076982;28;19962;-70
2021/07/01 06:33:22;;;;;;;1.30;0.98;;;18.10;99.50;;;;;;5072934;28;20087;-70
2021/07/01 06:36:08;;;;;;;2.88;0.98;;;18.10;99.50;;;;;;5068855;28;20032;-68
2021/07/01 06:38:58;;;;;;;2.28;1.30;;;18.10;99.50;;;;;;5075191;28;20441;-70
2021/07/01 06:41:45;;;;;;;2.35;1.08;;;18.10;99.40;;;;;;5076294;28;20062;-71
2021/07/01 06:44:30;;;;;;;2.67;1.27;;;18.20;99.40;;;;;;5077571;28;20059;-73
2021/07/01 06:47:15;;;;;;;1.90;1.13;;;18.20;99.40;;;;;;5073037;28;20098;-72
2021/07/01 06:50:05;;;;;;;2.35;1.30;;;18.20;99.30;;;;;;5071073;28;20023;-73
2021/07/01 06:52:52;;;;;;;2.85;1.15;;;18.30;99.30;;;;;;5065301;28;20047;-73
2021/07/01 06:55:37;;;;;;;4.00;1.10;;;18.30;99.20;;;;;;5079761;28;20035;-73
2021/07/01 06:58:21;;;;;;;2.05;1.23;;;18.30;99.20;;;;;;5083350;28;20111;-72
2021/07/01 07:01:05;;;;;;;1.77;1.10;;;18.30;99.10;;;;;;5066358;28;20059;-73
2021/07/01 07:03:50;;;;;;;1.63;1.20;;;18.40;99.00;;;;;;5075299;28;20074;-70
2021/07/01 07:06:35;;;;;;;4.03;2.13;;;18.30;98.90;;;;;;5081790;28;20050;-71
2021/07/01 07:09:21;;;;;;;2.53;1.45;;;18.30;98.80;;;;;;5071580;28;20032;-71
2021/07/01 07:12:06;;;;;;;2.10;1.45;;;18.40;98.80;;;;;;5071942;28;20158;-72
2021/07/01 07:14:50;;;;;;;2.08;1.27;;;18.40;98.80;;;;;;5072336;28;20086;-72
2021/07/01 07:17:37;;;;;;;3.30;1.92;;;18.40;98.70;;;;;;5074757;28;20051;-72
2021/07/01 07:20:22;;;;;;;2.13;1.48;;;18.30;98.80;;;;;;5068543;28;20043;-72
2021/07/01 07:23:08;;;;;;;4.72;1.42;;;18.40;98.80;;;;;;5072067;28;20044;-72
2021/07/01 07:25:54;;;;;;;1.98;1.40;;;18.40;98.80;;;;;;5085026;28;20109;-72
2021/07/01 07:28:41;;;;;;;2.03;1.40;;;18.40;98.80;;;;;;5073999;28;20116;-72
2021/07/01 07:31:33;;;;;;;2.17;1.40;;;18.50;98.60;;;;;;5072009;28;20028;-72
2021/07/01 07:34:17;;;;;;;2.10;1.40;;;18.50;98.50;;;;;;5062812;28;20067;-70
2021/07/01 07:37:01;;;;;;;2.00;1.25;;;18.60;98.50;;;;;;5074834;28;20054;-71
2021/07/01 07:39:46;;;;;;;2.15;1.00;;;18.60;98.40;;;;;;5077542;28;20043;-70
2021/07/01 07:42:31;;;;;;;;;;;18.60;98.50;;;;;;5065907;28;20188;-70
2021/07/01 07:45:15;;;;;;;2.22;1.30;;;18.60;98.40;;;;;;5077316;28;19931;-70
2021/07/01 07:47:59;;;;;;;1.83;1.20;;;18.60;98.40;;;;;;5065540;28;20036;-70
2021/07/01 07:50:50;;;;;;;2.53;1.40;;;18.60;98.40;;;;;;5064457;28;20132;-70
2021/07/01 07:53:35;;;;;;;3.58;1.40;;;18.60;98.30;;;;;;5074035;28;20036;-70
2021/07/01 07:56:25;;;;;;;1.77;1.17;;;18.70;98.30;;;;;;5071416;28;20066;-70
2021/07/01 07:59:10;;;;;;;3.15;1.20;;;18.70;98.20;;;;;;5062885;28;20073;-70
2021/07/01 08:02:00;;;;;;;1.75;1.35;;;18.60;98.30;;;;;;5075453;28;20048;-70
2021/07/01 08:04:44;;;;;;;6.60;1.40;;;18.70;98.20;;;;;;5070940;28;20065;-70
2021/07/01 08:07:30;;;;;;;2.40;1.58;;;18.70;98.20;;;;;;5069722;28;20075;-70
2021/07/01 08:10:17;;;;;;;2.40;1.50;;;18.70;98.10;;;;;;5069813;28;20545;-70
2021/07/01 08:13:05;;;;;;;3.25;1.38;;;18.80;98.00;;;;;;5072659;28;20131;-69
2021/07/01 08:15:49;;;;;;;2.42;1.70;;;18.80;98.00;;;;;;5066186;28;20085;-70
2021/07/01 08:18:41;;;;;;;1.77;1.20;;;18.80;97.90;;;;;;5066848;28;20039;-67
2021/07/01 08:21:27;;;;;;;2.78;1.42;;;18.80;97.80;;;;;;5055712;28;20472;-68
2021/07/01 08:24:13;;;;;;;1.85;1.30;;;18.70;97.90;;;;;;5062012;28;20067;-73
2021/07/01 08:27:00;;;;;;;3.67;1.40;;;18.80;97.90;;;;;;5068345;28;20684;-73
2021/07/01 08:29:47;;;;;;;1.63;1.25;;;18.80;98.00;;;;;;5063857;28;20032;-73
2021/07/01 08:32:34;;;;;;;1.52;1.10;;;18.80;97.90;;;;;;5069943;28;20028;-74
2021/07/01 08:35:22;;;;;;;1.33;0.90;;;18.80;97.80;;;;;;5061825;28;20438;-73
2021/07/01 08:38:08;;;;;;;2.08;1.00;;;18.90;97.50;;;;;;5071051;28;20092;-74
2021/07/01 08:41:06;;;;;;;2.58;1.02;;;18.80;97.40;;;;;;5063782;28;20048;-71
2021/07/01 08:44:06;;;;;;;1.63;0.80;;;18.80;97.40;;;;;;5067205;28;20032;-72
2021/07/01 08:47:10;;;;;;;1.23;1.00;;;18.80;97.40;;;;;;5068591;28;20408;-71
2021/07/01 08:49:58;;;;;;;1.70;1.10;;;18.80;97.40;;;;;;5067097;28;20033;-71
2021/07/01 08:52:46;;;;;;;3.38;1.30;;;18.90;97.50;;;;;;5065331;28;20040;-71
2021/07/01 08:55:32;;;;;;;1.60;1.20;;;18.80;97.50;;;;;;5070521;28;20021;-71
2021/07/01 08:58:22;;;;;;;1.77;1.33;;;18.90;97.50;;;;;;5071567;28;20056;-71
2021/07/01 09:01:08;;;;;;;2.60;1.30;;;18.90;97.50;;;;;;5072280;28;20044;-71
2021/07/01 09:03:58;;;;;;;2.13;1.30;;;18.90;97.60;;;;;;5063291;28;20028;-70
2021/07/01 09:06:48;;;;;;;5.78;1.27;;;18.90;97.60;;;;;;5071019;28;20554;-71
2021/07/01 09:09:37;;;;;;;2.60;1.30;;;18.90;97.60;;;;;;5068105;28;20037;-71
2021/07/01 09:12:27;;;;;;;3.33;1.60;;;19.00;97.50;;;;;;5069595;28;20481;-71
2021/07/01 09:15:13;;;;;;;3.22;1.23;;;18.90;97.50;;;;;;5052214;28;20032;-71
2021/07/01 09:17:59;;;;;;;2.08;1.40;;;18.90;97.40;;;;;;5075245;28;20019;-71
2021/07/01 09:20:45;;;;;;;2.03;1.40;;;18.90;97.40;;;;;;5071435;28;20025;-72
2021/07/01 09:23:32;;;;;;;4.13;1.42;;;18.90;97.40;;;;;;5070893;28;20050;-72
2021/07/01 09:26:22;;;;;;;2.28;1.40;;;18.90;97.20;;;;;;5069694;28;20031;-73
2021/07/01 09:29:09;;;;;;;2.85;1.67;;;18.90;97.20;;;;;;5069501;28;20039;-71
2021/07/01 09:31:56;;;;;;;3.58;2.00;;;18.90;97.00;;;;;;5077890;28;20036;-71
2021/07/01 09:34:45;;;;;;;2.30;1.80;;;18.90;96.80;;;;;;5081303;28;20111;-71
2021/07/01 09:37:42;;;;;;;1.88;1.48;;;19.00;96.80;;;;;;5071539;28;20032;-71
2021/07/01 09:40:28;;;;;;;2.50;1.63;;;19.00;96.90;;;;;;5073130;28;20086;-71
2021/07/01 09:43:16;;;;;;;2.53;1.70;;;19.00;96.90;;;;;;5080902;28;20521;-74
2021/07/01 09:46:02;;;;;;;4.10;1.95;;;19.00;96.90;;;;;;5080952;28;20483;-72
2021/07/01 09:48:51;;;;;;;3.40;1.95;;;19.00;97.00;;;;;;5079652;28;20224;-70
2021/07/01 09:51:38;;;;;;;2.60;1.85;;;18.90;97.00;;;;;;5075824;28;20498;-70
2021/07/01 09:54:25;;;;;;;3.85;1.92;;;18.90;97.00;;;;;;5077616;28;20720;-70
2021/07/01 09:57:22;;;;;;;3.00;2.22;;;18.90;97.00;;;;;;5071107;28;20029;-71
2021/07/01 10:00:12;;;;;;;3.47;1.88;;;18.90;96.90;;;;;;5082819;28;20028;-70
2021/07/01 10:03:09;;;;;;;2.17;1.80;;;18.90;96.90;;;;;;5069265;28;20048;-70
2021/07/01 10:05:55;;;;;;;2.95;2.05;;;18.90;96.80;;;;;;5070778;28;20052;-70
2021/07/01 10:08:40;;;;;;;2.88;2.10;;;18.90;96.90;;;;;;5075699;28;20033;-70
2021/07/01 10:11:32;;;;;;;3.05;2.22;;;18.80;96.90;;;;;;5081364;28;20123;-70
2021/07/01 10:14:19;;;;;;;2.63;2.22;;;18.80;97.00;;;;;;5074068;28;20020;-70
2021/07/01 10:17:11;;;;;;;3.42;2.40;;;18.80;96.90;;;;;;5067103;28;20510;-71
2021/07/01 10:20:08;;;;;;;4.28;2.42;;;18.80;96.80;;;;;;5076815;28;20074;-71
2021/07/01 10:22:53;;;;;;;3.72;2.67;;;18.80;96.80;;;;;;5047210;28;20044;-71
2021/07/01 10:25:37;;;;;;;;;;;18.80;96.60;;;;;;5080729;28;20058;-71
2021/07/01 10:28:23;;;;;;;4.22;2.88;;;18.80;96.70;;;;;;5070203;28;19959;-70
2021/07/01 10:31:13;;;;;;;3.63;2.83;;;18.70;96.70;;;;;;5080043;28;20039;-71
2021/07/01 10:33:58;;;;;;;4.15;3.10;;;18.70;96.80;;;;;;5078194;28;20082;-70
2021/07/01 10:36:43;;;;;;;3.50;2.88;;;18.70;96.80;;;;;;5082287;28;20036;-71
2021/07/01 10:39:28;;;;;;;5.05;3.17;;;18.70;96.80;;;;;;5070811;28;20039;-70
2021/07/01 10:42:14;;;;;;;3.42;2.90;;;18.70;97.10;;;;;;5076335;28;20047;-73
2021/07/01 10:45:10;;;;;;;6.20;3.30;;;18.70;96.80;;;;;;5073119;28;20071;-71
2021/07/01 10:48:17;;;;;;;3.88;2.83;;;18.60;96.80;;;;;;5075379;28;20047;-71
2021/07/01 10:51:11;;;;;;;4.05;3.03;;;18.70;96.80;;;;;;5079185;28;20560;-71
2021/07/01 10:54:15;;;;;;;5.45;3.15;;;18.70;96.90;;;;;;5069000;28;20044;-71
2021/07/01 10:57:05;;;;;;;3.67;3.00;;;18.70;96.90;;;;;;5071934;28;20434;-71
2021/07/01 10:59:52;;;;;;;3.90;3.20;;;18.70;96.80;;;;;;5072732;28;20392;-71
2021/07/01 11:02:46;;;;;;;3.13;2.72;;;18.70;96.80;;;;;;5071078;28;20046;-71
2021/07/01 11:05:34;;;;;;;3.90;3.10;;;18.70;96.80;;;;;;5071441;28;20051;-71
2021/07/01 11:08:27;;;;;;;3.78;3.28;;;18.70;96.80;;;;;;5073215;28;20094;-71
2021/07/01 11:11:20;;;;;;;4.07;2.90;;;18.70;96.80;;;;;;5059853;28;20047;-72
2021/07/01 11:14:12;;;;;;;3.97;3.20;;;18.80;96.80;;;;;;5072074;28;20502;-71
2021/07/01 11:17:00;;;;;;;5.25;3.65;;;18.80;96.90;;;;;;5066552;28;20070;-70
2021/07/01 11:19:46;;;;;;;5.10;3.40;;;18.80;97.00;;;;;;5083440;28;20069;-70
2021/07/01 11:22:50;;;;;;;4.45;3.60;;;18.80;96.90;;;;;;5067189;28;20058;-70
2021/07/01 11:25:38;;;;;;;6.57;4.07;;;18.80;96.80;;;;;;5066759;28;20069;-70
2021/07/01 11:28:28;;;;;;;4.38;3.78;;;18.80;96.60;;;;;;5080755;28;20039;-69
2021/07/01 11:31:13;;;;;;;4.20;3.63;;;18.80;96.70;;;;;;5068743;28;20129;-71
2021/07/01 11:33:57;;;;;;;6.47;4.13;;;18.90;96.80;;;;;;5075362;28;20046;-71
2021/07/01 11:36:48;;;;;;;5.40;4.32;;;18.90;96.90;;;;;;5083345;28;20035;-71
2021/07/01 11:39:33;;;;;;;4.50;4.00;;;18.80;97.00;;;;;;5077614;28;20043;-72
2021/07/01 11:42:17;;;;;;;5.93;4.07;;;18.80;97.00;;;;;;5067900;28;20085;-71
2021/07/01 11:45:02;;;;;;;4.47;4.07;;;18.90;96.90;;;;;;5064037;28;20075;-71
2021/07/01 11:47:47;;;;;;;5.40;4.87;;;18.80;97.00;;;;;;5070016;28;20055;-72
2021/07/01 11:50:31;;;;;;;6.38;5.32;;;18.80;97.10;;;;;;5068564;28;20763;-72
2021/07/01 11:53:18;;;;;;;5.28;4.15;;;18.80;97.10;;;;;;5071269;28;20093;-72
2021/07/01 11:56:02;;;;;;;5.65;4.50;;;18.80;97.10;;;;;;5072787;28;20070;-71
2021/07/01 11:58:46;;;;;;;6.53;5.53;;;18.80;97.00;;;;;;5072023;28;20392;-71
2021/07/01 12:01:32;;;;;;;5.80;5.20;;;18.80;97.20;;;;;;5070921;28;20151;-70
2021/07/01 12:04:18;;;;;;;6.78;5.18;;;18.90;97.10;;;;;;5070874;28;20032;-71
2021/07/01 12:07:27;;;;;;;7.45;5.10;;;18.90;97.10;;;;;;5071588;28;20055;-71
2021/07/01 12:10:17;;;;;;;6.65;4.90;;;18.90;97.00;;;;;;5071022;28;20036;-72
2021/07/01 12:13:01;;;;;;;5.82;4.85;;;18.90;97.00;;;;;;5072134;28;20605;-72
2021/07/01 12:16:05;;;;;;;6.93;5.20;;;18.90;97.00;;;;;;5062780;28;20418;-71
2021/07/01 12:18:55;;;;;;;6.70;4.75;;;19.00;97.10;;;;;;5069126;28;20043;-69
2021/07/01 12:21:41;;;;;;;7.63;5.88;;;19.00;97.20;;;;;;5067768;28;20066;-71
2021/07/01 12:24:30;;;;;;;6.60;5.30;;;19.00;97.20;;;;;;5069856;28;20032;-70
2021/07/01 12:27:29;;;;;;;5.80;4.95;;;19.10;97.20;;;;;;5064073;28;20048;-69
2021/07/01 12:30:13;;;;;;;8.05;5.53;;;19.10;97.20;;;;;;5069037;28;20434;-70
2021/07/01 12:33:20;;;;;;;5.90;5.10;;;19.20;97.20;;;;;;5072028;28;20035;-70
2021/07/01 12:36:19;;;;;;;6.40;5.00;;;19.30;97.30;;;;;;5052492;28;20078;-71
2021/07/01 12:39:03;;;;;;;9.82;5.68;;;19.30;97.40;;;;;;5057719;28;20035;-71
2021/07/01 12:42:04;;;;;;;7.28;5.85;;;19.40;97.40;;;;;;5070278;28;20106;-71
2021/07/01 12:44:51;;;;;;;7.82;5.63;;;19.40;97.40;;;;;;5070707;28;20038;-71
2021/07/01 12:47:37;;;;;;;6.35;5.22;;;19.40;97.40;;;;;;5071765;28;20503;-71
2021/07/01 12:50:28;;;;;;;6.10;4.72;;;19.40;97.40;;;;;;5071491;28;20046;-71
2021/07/01 12:53:42;;;;;;;7.97;5.25;;;19.50;97.20;;;;;;5073723;28;20502;-70
2021/07/01 12:56:30;;;;;;;8.13;4.95;;;19.50;97.20;;;;;;5063193;28;20036;-71
2021/07/01 12:59:14;;;;;;;8.55;5.70;;;19.50;97.20;;;;;;5070950;28;20085;-71
2021/07/01 13:02:04;;;;;;;5.80;4.78;;;19.50;97.20;;;;;;5070308;28;20082;-72
2021/07/01 13:05:00;;;;;;;5.88;4.88;;;19.50;97.10;;;;;;5071538;28;20205;-72
2021/07/01 13:07:47;;;;;;;5.45;4.90;;;19.60;97.10;;;;;;5070658;28;20439;-72
2021/07/01 13:10:32;;;;;;;8.77;5.18;;;19.60;97.10;;;;;;5071296;28;20047;-72
2021/07/01 13:13:15;;;;;;;5.67;5.07;;;19.50;97.10;;;;;;5070155;28;20115;-71
2021/07/01 13:16:07;;;;;;;7.20;5.20;;;19.60;97.10;;;;;;5069839;28;20104;-71
2021/07/01 13:18:51;;;;;;;6.43;5.60;;;19.60;97.10;;;;;;5071422;28;20047;-71
2021/07/01 13:21:35;;;;;;;8.35;5.53;;;19.60;97.10;;;;;;5068798;28;20062;-71
2021/07/01 13:24:20;;;;;;;6.77;4.87;;;19.70;97.10;;;;;;5065418;28;20028;-71
2021/07/01 13:27:04;;;;;;;6.07;5.45;;;19.80;97.10;;;;;;5069991;28;20617;-72
2021/07/01 13:29:49;;;;;;;5.70;5.07;;;19.80;97.10;;;;;;5069812;28;20070;-71
2021/07/01 13:32:34;;;;;;;6.03;5.20;;;19.80;97.00;;;;;;5070709;28;20089;-71
2021/07/01 13:35:21;;;;;;;6.65;5.03;;;19.80;96.80;;;;;;5071505;28;20518;-72
2021/07/01 13:38:23;;;;;;;5.43;4.50;;;19.90;96.70;;;;;;5061618;28;20060;-72
2021/07/01 13:41:08;;;;;;;6.57;4.75;;;19.90;96.60;;;;;;5068417;28;20043;-71
2021/07/01 13:43:51;;;;;;;4.90;4.40;;;19.90;96.40;;;;;;5070611;28;20503;-73
2021/07/01 13:46:39;;;;;;;5.97;5.17;;;20.00;96.40;;;;;;5071211;28;20277;-72
2021/07/01 13:49:23;;;;;;;10.45;5.95;;;20.00;96.40;;;;;;5070096;28;20324;-73
2021/07/01 13:52:07;;;;;;;5.22;4.72;;;20.00;96.40;;;;;;5068556;28;20036;-71
2021/07/01 13:54:53;;;;;;;7.00;6.30;;;20.00;96.40;;;;;;5058999;28;20048;-70
2021/07/01 13:57:37;;;;;;;6.90;5.55;;;20.00;96.50;;;;;;5069829;28;20052;-70
2021/07/01 14:00:42;;;;;;;6.75;5.88;;;20.00;96.50;;;;;;5058970;28;20384;-72
2021/07/01 14:03:32;;;;;;;5.88;5.13;;;20.00;96.40;;;;;;5074952;28;20039;-72
2021/07/01 14:06:16;;;;;;;8.00;5.97;;;20.00;96.40;;;;;;5073142;28;20132;-72
2021/07/01 14:09:00;;;;;;;6.43;5.82;;;20.00;96.40;;;;;;5055525;28;20083;-72
2021/07/01 14:11:47;;;;;;;7.47;5.20;;;20.00;96.40;;;;;;5073184;28;20047;-72
2021/07/01 14:14:31;;;;;;;9.20;5.88;;;20.00;96.50;;;;;;5073234;28;20051;-72
2021/07/01 14:17:15;;;;;;;7.30;5.93;;;20.10;96.60;;;;;;5067759;28;20069;-72
2021/07/01 14:20:00;;;;;;;5.47;4.60;;;20.20;96.50;;;;;;5072447;28;20064;-72
2021/07/01 14:22:46;;;;;;;7.18;6.40;;;20.30;96.40;;;;;;5071988;28;20289;-72
2021/07/01 14:25:36;;;;;;;6.18;5.28;;;20.30;96.50;;;;;;5072809;28;20024;-72
2021/07/01 14:28:30;;;;;;;6.40;5.50;;;20.40;96.50;;;;;;5068364;28;20438;-71